createdAt,value
2018-07-22T00:00:13.939Z,19.50
2018-07-22T00:03:12.179Z,19.58
2018-07-22T00:06:10.206Z,19.49
2018-07-22T00:09:08.106Z,19.36
2018-07-22T00:12:06.026Z,19.24
2018-07-22T00:15:04.086Z,19.19
2018-07-22T00:18:02.133Z,19.16
2018-07-22T00:21:00.107Z,19.28
2018-07-22T00:23:58.207Z,19.14
2018-07-22T00:26:56.106Z,19.21
2018-07-22T00:29:54.016Z,19.01
2018-07-22T00:32:51.975Z,18.95
2018-07-22T00:35:49.742Z,19.00
2018-07-22T00:38:47.749Z,19.05
2018-07-22T00:41:45.550Z,19.10
2018-07-22T00:44:43.286Z,19.16
2018-07-22T00:47:41.278Z,19.24
2018-07-22T00:50:38.624Z,19.14
2018-07-22T00:53:36.511Z,19.05
2018-07-22T00:56:34.682Z,18.94
2018-07-22T00:59:32.548Z,19.11
2018-07-22T01:02:30.636Z,19.13
2018-07-22T01:05:28.910Z,19.36
2018-07-22T01:08:27.006Z,19.47
2018-07-22T01:11:25.134Z,19.61
2018-07-22T01:14:23.106Z,19.83
2018-07-22T01:17:20.946Z,19.90
2018-07-22T01:20:19.763Z,19.90
2018-07-22T01:23:17.685Z,19.98
2018-07-22T01:26:15.528Z,20.09
2018-07-22T01:29:13.459Z,20.22
2018-07-22T01:32:11.260Z,20.26
2018-07-22T01:35:09.084Z,20.34
2018-07-22T01:38:07.175Z,20.32
2018-07-22T01:41:04.433Z,20.35
2018-07-22T01:44:02.269Z,20.24
2018-07-22T01:47:00.287Z,20.34
2018-07-22T01:49:58.146Z,20.32
2018-07-22T01:52:55.931Z,20.32
2018-07-22T01:55:53.951Z,20.27
2018-07-22T01:58:52.019Z,20.37
2018-07-22T02:01:50.028Z,20.39
2018-07-22T02:04:47.914Z,20.42
2018-07-22T02:07:45.654Z,20.43
2018-07-22T02:10:43.535Z,20.43
2018-07-22T02:13:41.412Z,20.39
2018-07-22T02:16:39.241Z,20.35
2018-07-22T02:19:37.225Z,20.32
2018-07-22T02:22:35.314Z,20.23
2018-07-22T02:25:33.391Z,20.22
2018-07-22T02:28:31.479Z,20.15
2018-07-22T02:31:30.521Z,20.16
2018-07-22T02:34:28.457Z,20.12
2018-07-22T02:37:26.413Z,20.12
2018-07-22T02:40:24.383Z,20.12
2018-07-22T02:43:22.380Z,20.09
2018-07-22T02:46:20.181Z,20.03
2018-07-22T02:49:18.098Z,19.98
2018-07-22T02:52:15.218Z,19.88
2018-07-22T02:55:13.191Z,19.87
2018-07-22T02:58:11.135Z,19.82
2018-07-22T03:01:09.158Z,19.80
2018-07-22T03:04:07.278Z,19.86
2018-07-22T03:07:05.154Z,19.85
2018-07-22T03:10:03.098Z,19.83
2018-07-22T03:13:01.182Z,19.77
2018-07-22T03:15:59.070Z,19.67
2018-07-22T03:18:57.126Z,19.74
2018-07-22T03:21:55.115Z,19.67
2018-07-22T03:24:53.164Z,19.72
2018-07-22T03:27:51.134Z,19.66
2018-07-22T03:30:49.246Z,19.50
2018-07-22T03:33:47.289Z,19.46
2018-07-22T03:36:45.391Z,19.41
2018-07-22T03:39:43.556Z,19.47
2018-07-22T03:42:41.522Z,19.56
2018-07-22T03:45:38.799Z,19.67
2018-07-22T03:48:36.926Z,19.83
2018-07-22T03:51:34.843Z,19.83
2018-07-22T03:54:32.662Z,19.84
2018-07-22T03:57:30.559Z,19.87
2018-07-22T04:00:28.907Z,19.86
2018-07-22T04:03:27.034Z,19.86
2018-07-22T04:06:24.897Z,19.85
2018-07-22T04:09:22.898Z,19.94
2018-07-22T04:12:21.061Z,19.90
2018-07-22T04:15:19.918Z,19.93
2018-07-22T04:18:18.027Z,19.88
2018-07-22T04:21:15.925Z,19.78
2018-07-22T04:24:13.855Z,19.77
2018-07-22T04:27:11.719Z,19.71
2018-07-22T04:30:09.747Z,19.74
2018-07-22T04:33:07.786Z,19.69
2018-07-22T04:36:05.766Z,19.73
2018-07-22T04:39:03.742Z,19.69
2018-07-22T04:42:01.639Z,19.76
2018-07-22T04:44:59.606Z,19.85
2018-07-22T04:47:57.706Z,19.82
2018-07-22T04:50:55.735Z,19.82
2018-07-22T04:53:53.740Z,19.76
2018-07-22T04:56:51.638Z,19.86
2018-07-22T04:59:49.603Z,20.00
2018-07-22T05:02:47.529Z,20.04
2018-07-22T05:05:45.477Z,20.06
2018-07-22T05:08:43.494Z,20.03
2018-07-22T05:11:41.673Z,20.10
2018-07-22T05:14:39.638Z,20.15
2018-07-22T05:17:37.514Z,20.21
2018-07-22T05:20:35.354Z,20.28
2018-07-22T05:23:33.339Z,20.33
2018-07-22T05:26:31.194Z,20.40
2018-07-22T05:29:29.002Z,20.52
2018-07-22T05:32:26.919Z,20.69
2018-07-22T05:35:24.549Z,20.69
2018-07-22T05:38:22.626Z,20.92
2018-07-22T05:41:21.615Z,21.11
2018-07-22T05:44:19.734Z,20.83
2018-07-22T05:47:17.698Z,20.43
2018-07-22T05:50:15.530Z,20.43
2018-07-22T05:53:13.900Z,20.46
2018-07-22T05:56:11.735Z,20.56
2018-07-22T05:59:09.703Z,20.76
2018-07-22T06:02:07.544Z,20.96
2018-07-22T06:05:05.532Z,21.29
2018-07-22T06:08:03.155Z,21.76
2018-07-22T06:11:01.061Z,21.81
2018-07-22T06:13:58.906Z,21.70
2018-07-22T06:16:56.817Z,21.54
2018-07-22T06:19:54.659Z,21.72
2018-07-22T06:22:52.852Z,21.66
2018-07-22T06:25:50.046Z,21.59
2018-07-22T06:28:47.846Z,21.39
2018-07-22T06:31:45.962Z,22.27
2018-07-22T06:34:44.118Z,22.75
2018-07-22T06:37:41.451Z,22.89
2018-07-22T06:40:39.478Z,24.20
2018-07-22T06:43:37.602Z,24.85
2018-07-22T06:46:35.710Z,24.98
2018-07-22T06:49:33.546Z,25.71
2018-07-22T06:52:31.675Z,26.25
2018-07-22T06:55:29.313Z,25.58
2018-07-22T06:58:27.503Z,25.68
2018-07-22T07:01:25.554Z,25.65
2018-07-22T07:04:23.459Z,25.25
2018-07-22T07:07:21.407Z,26.51
2018-07-22T07:10:19.406Z,26.67
2018-07-22T07:13:17.292Z,26.91
2018-07-22T07:16:15.462Z,27.72
2018-07-22T07:19:13.346Z,27.27
2018-07-22T07:22:11.330Z,27.73
2018-07-22T07:25:09.456Z,28.79
2018-07-22T07:28:07.231Z,29.39
2018-07-22T07:31:05.243Z,28.50
2018-07-22T07:34:03.327Z,28.71
2018-07-22T07:37:01.217Z,29.49
2018-07-22T07:39:59.234Z,29.95
2018-07-22T07:42:57.118Z,29.82
2018-07-22T07:45:54.286Z,28.96
2018-07-22T07:48:51.423Z,29.88
2018-07-22T07:51:49.322Z,30.94
2018-07-22T07:54:47.382Z,31.31
2018-07-22T07:57:45.239Z,30.24
2018-07-22T08:00:43.279Z,30.69
2018-07-22T08:03:41.490Z,29.36
2018-07-22T08:06:39.612Z,30.50
2018-07-22T08:09:37.675Z,30.02
2018-07-22T08:12:35.743Z,30.48
2018-07-22T08:15:33.798Z,29.30
2018-07-22T08:18:31.847Z,30.26
2018-07-22T08:21:29.851Z,30.14
2018-07-22T08:24:27.625Z,29.37
2018-07-22T08:27:25.630Z,29.03
2018-07-22T08:30:23.627Z,30.00
2018-07-22T08:33:21.647Z,30.69
2018-07-22T08:36:19.530Z,31.17
2018-07-22T08:39:19.608Z,31.54
2018-07-22T08:42:17.643Z,32.36
2018-07-22T08:45:15.495Z,32.54
2018-07-22T08:48:13.478Z,32.80
2018-07-22T08:51:11.552Z,32.90
2018-07-22T08:54:09.408Z,32.09
2018-07-22T08:57:07.100Z,31.46
2018-07-22T09:00:05.192Z,31.37
2018-07-22T09:03:03.258Z,31.63
2018-07-22T09:06:01.423Z,31.90
2018-07-22T09:08:59.318Z,32.28
2018-07-22T09:11:57.383Z,32.66
2018-07-22T09:14:55.356Z,32.61
2018-07-22T09:17:53.452Z,33.50
2018-07-22T09:20:51.498Z,33.48
2018-07-22T09:23:49.550Z,33.97
2018-07-22T09:26:47.451Z,33.70
2018-07-22T09:29:45.226Z,33.15
2018-07-22T09:32:43.099Z,32.69
2018-07-22T09:35:41.133Z,33.04
2018-07-22T09:38:38.987Z,33.24
2018-07-22T09:41:36.166Z,33.16
2018-07-22T09:44:33.850Z,33.09
2018-07-22T09:47:32.066Z,32.53
2018-07-22T09:50:30.071Z,33.32
2018-07-22T09:53:28.378Z,33.89
2018-07-22T09:56:26.490Z,33.08
2018-07-22T09:59:24.512Z,31.68
2018-07-22T10:02:22.660Z,31.77
2018-07-22T10:05:20.754Z,31.20
2018-07-22T10:08:18.716Z,31.15
2018-07-22T10:11:16.665Z,30.13
2018-07-22T10:14:14.560Z,30.29
2018-07-22T10:17:12.499Z,31.10
2018-07-22T10:20:09.671Z,31.64
2018-07-22T10:23:07.814Z,31.22
2018-07-22T10:26:05.862Z,31.59
2018-07-22T10:29:04.003Z,32.04
2018-07-22T10:32:02.242Z,31.84
2018-07-22T10:35:00.047Z,32.57
2018-07-22T10:37:58.009Z,33.15
2018-07-22T10:40:56.003Z,33.26
2018-07-22T10:43:54.242Z,31.22
2018-07-22T10:46:52.147Z,31.32
2018-07-22T10:49:50.215Z,32.13
2018-07-22T10:52:48.133Z,33.02
2018-07-22T10:55:46.302Z,32.98
2018-07-22T10:58:44.069Z,33.38
2018-07-22T11:01:42.095Z,33.56
2018-07-22T11:04:40.082Z,32.76
2018-07-22T11:07:38.147Z,32.50
2018-07-22T11:10:36.216Z,32.45
2018-07-22T11:13:34.130Z,33.35
2018-07-22T11:16:31.926Z,33.74
2018-07-22T11:19:30.131Z,34.37
2018-07-22T11:22:28.345Z,34.13
2018-07-22T11:25:26.105Z,32.49
2018-07-22T11:28:23.866Z,33.12
2018-07-22T11:31:21.856Z,31.62
2018-07-22T11:34:19.836Z,31.32
2018-07-22T11:37:17.885Z,30.85
2018-07-22T11:40:15.648Z,30.21
2018-07-22T11:43:13.644Z,30.06
2018-07-22T11:46:11.495Z,29.27
2018-07-22T11:49:09.686Z,28.85
2018-07-22T11:52:06.953Z,28.61
2018-07-22T11:55:05.168Z,28.76
2018-07-22T11:58:03.244Z,28.84
2018-07-22T12:01:00.950Z,29.29
2018-07-22T12:03:59.123Z,29.19
2018-07-22T12:06:57.131Z,29.60
2018-07-22T12:09:54.971Z,29.62
2018-07-22T12:12:52.939Z,29.85
2018-07-22T12:15:51.039Z,29.43
2018-07-22T12:18:49.186Z,29.47
2018-07-22T12:21:47.110Z,29.33
2018-07-22T12:24:45.154Z,29.40
2018-07-22T12:27:43.087Z,29.43
2018-07-22T12:30:41.030Z,29.57
2018-07-22T12:33:38.948Z,29.69
2018-07-22T12:36:37.224Z,29.77
2018-07-22T12:39:35.090Z,29.61
2018-07-22T12:42:33.037Z,30.07
2018-07-22T12:45:30.966Z,29.92
2018-07-22T12:48:29.199Z,29.52
2018-07-22T12:51:27.243Z,29.43
2018-07-22T12:54:25.191Z,29.84
2018-07-22T12:57:23.131Z,28.69
2018-07-22T13:00:20.802Z,28.76
2018-07-22T13:03:18.648Z,28.62
2018-07-22T13:06:16.751Z,28.96
2018-07-22T13:09:14.708Z,29.31
2018-07-22T13:12:12.898Z,29.01
2018-07-22T13:15:10.674Z,28.98
2018-07-22T13:18:08.741Z,29.26
2018-07-22T13:21:07.083Z,29.13
2018-07-22T13:24:05.099Z,29.08
2018-07-22T13:27:02.947Z,28.98
2018-07-22T13:30:02.083Z,29.41
2018-07-22T13:32:59.970Z,29.56
2018-07-22T13:35:58.017Z,29.77
2018-07-22T13:38:56.119Z,29.81
2018-07-22T13:41:54.128Z,29.63
2018-07-22T13:45:00.275Z,29.29
2018-07-22T13:47:58.071Z,28.98
2018-07-22T13:50:56.156Z,28.46
2018-07-22T13:53:54.138Z,28.63
2018-07-22T13:56:52.373Z,28.63
2018-07-22T13:59:50.478Z,28.48
2018-07-22T14:02:48.552Z,28.06
2018-07-22T14:05:46.455Z,28.04
2018-07-22T14:08:44.275Z,28.36
2018-07-22T14:11:42.424Z,28.80
2018-07-22T14:14:40.257Z,28.72
2018-07-22T14:17:38.334Z,28.37
2018-07-22T14:20:36.163Z,28.45
2018-07-22T14:23:34.200Z,28.59
2018-07-22T14:26:32.174Z,28.40
2018-07-22T14:29:30.197Z,28.32
2018-07-22T14:32:28.171Z,28.15
2018-07-22T14:35:26.191Z,28.33
2018-07-22T14:38:24.170Z,28.29
2018-07-22T14:41:22.223Z,28.01
2018-07-22T14:44:20.241Z,27.80
2018-07-22T14:47:18.301Z,27.64
2018-07-22T14:50:16.054Z,27.77
2018-07-22T14:53:13.807Z,27.97
2018-07-22T14:56:11.788Z,27.97
2018-07-22T14:59:09.748Z,27.84
2018-07-22T15:02:07.719Z,27.65
2018-07-22T15:05:05.797Z,27.92
2018-07-22T15:08:03.647Z,28.03
2018-07-22T15:11:01.621Z,27.83
2018-07-22T15:13:58.822Z,27.94
2018-07-22T15:16:56.922Z,28.20
2018-07-22T15:19:55.020Z,28.43
2018-07-22T15:22:53.199Z,28.49
2018-07-22T15:25:50.464Z,28.17
2018-07-22T15:28:47.834Z,28.11
2018-07-22T15:31:45.371Z,27.66
2018-07-22T15:34:43.309Z,27.77
2018-07-22T15:37:41.466Z,27.95
2018-07-22T15:40:38.538Z,28.13
2018-07-22T15:43:36.440Z,28.51
2018-07-22T15:46:34.624Z,28.78
2018-07-22T15:49:32.453Z,28.94
2018-07-22T15:52:30.371Z,28.96
2018-07-22T15:55:28.545Z,28.98
2018-07-22T15:58:26.472Z,28.23
2018-07-22T16:01:24.440Z,27.86
2018-07-22T16:04:22.428Z,27.49
2018-07-22T16:07:20.390Z,27.35
2018-07-22T16:10:18.394Z,27.81
2018-07-22T16:13:16.301Z,28.06
2018-07-22T16:16:14.342Z,28.31
2018-07-22T16:19:12.510Z,28.41
2018-07-22T16:22:10.521Z,28.38
2018-07-22T16:25:08.544Z,28.33
2018-07-22T16:28:06.436Z,28.21
2018-07-22T16:31:04.596Z,28.13
2018-07-22T16:34:02.802Z,28.02
2018-07-22T16:37:00.795Z,27.72
2018-07-22T16:39:58.500Z,27.61
2018-07-22T16:42:56.594Z,27.60
2018-07-22T16:45:54.883Z,27.45
2018-07-22T16:48:53.048Z,27.45
2018-07-22T16:51:51.285Z,27.35
2018-07-22T16:54:49.203Z,27.45
2018-07-22T16:57:47.268Z,27.48
2018-07-22T17:00:45.278Z,27.53
2018-07-22T17:03:43.031Z,27.64
2018-07-22T17:06:41.117Z,27.54
2018-07-22T17:09:38.877Z,27.40
2018-07-22T17:12:36.968Z,27.26
2018-07-22T17:15:34.942Z,27.10
2018-07-22T17:18:32.916Z,26.98
2018-07-22T17:21:30.894Z,26.77
2018-07-22T17:24:28.162Z,26.68
2018-07-22T17:27:25.973Z,26.49
2018-07-22T17:30:23.837Z,26.24
2018-07-22T17:33:22.782Z,26.19
2018-07-22T17:36:20.679Z,26.16
2018-07-22T17:39:20.673Z,26.10
2018-07-22T17:42:18.786Z,26.03
2018-07-22T17:45:16.756Z,26.07
2018-07-22T17:48:14.701Z,26.16
2018-07-22T17:51:12.820Z,26.17
2018-07-22T17:54:10.762Z,26.29
2018-07-22T17:57:08.862Z,26.41
2018-07-22T18:00:06.563Z,26.37
2018-07-22T18:03:11.734Z,26.34
2018-07-22T18:06:09.635Z,26.34
2018-07-22T18:09:07.594Z,26.20
2018-07-22T18:12:05.725Z,26.05
2018-07-22T18:15:03.760Z,25.86
2018-07-22T18:18:01.803Z,25.80
2018-07-22T18:20:59.806Z,25.75
2018-07-22T18:23:57.967Z,25.68
2018-07-22T18:26:55.965Z,25.58
2018-07-22T18:29:53.861Z,25.61
2018-07-22T18:32:52.091Z,25.61
2018-07-22T18:35:50.135Z,25.57
2018-07-22T18:38:48.386Z,25.51
2018-07-22T18:41:46.306Z,25.47
2018-07-22T18:44:44.743Z,25.42
2018-07-22T18:47:42.480Z,25.25
2018-07-22T18:50:40.613Z,25.20
2018-07-22T18:53:38.876Z,25.16
2018-07-22T18:56:36.761Z,25.08
2018-07-22T18:59:34.625Z,24.99
2018-07-22T19:02:32.491Z,24.96
2018-07-22T19:25:10.241Z,24.89
2018-07-22T19:28:08.206Z,24.19
2018-07-22T19:31:06.286Z,24.18
2018-07-22T19:34:05.077Z,24.10
2018-07-22T19:37:02.743Z,24.09
2018-07-22T19:40:00.844Z,24.02
2018-07-22T19:42:58.696Z,23.86
2018-07-22T19:45:56.667Z,23.78
2018-07-22T19:48:54.433Z,23.73
2018-07-22T19:51:52.717Z,23.72
2018-07-22T19:54:50.791Z,23.28
2018-07-22T19:57:48.663Z,23.03
2018-07-22T20:00:46.848Z,22.83
2018-07-22T20:03:44.920Z,22.71
2018-07-22T20:06:42.821Z,22.69
2018-07-22T20:09:40.764Z,22.53
2018-07-22T20:12:39.057Z,22.65
2018-07-22T20:15:37.121Z,22.64
2018-07-22T20:18:35.303Z,22.72
2018-07-22T20:21:33.379Z,22.66
2018-07-22T20:24:31.310Z,22.46
2018-07-22T20:27:29.428Z,22.30
2018-07-22T20:30:27.404Z,22.22
2018-07-22T20:33:25.387Z,22.20
2018-07-22T20:36:23.073Z,22.24
2018-07-22T20:39:23.372Z,22.33
2018-07-22T20:42:20.839Z,22.21
2018-07-22T20:45:18.778Z,22.02
2018-07-22T20:48:16.789Z,21.81
2018-07-22T20:51:14.892Z,21.70
2018-07-22T20:54:12.606Z,21.66
2018-07-22T20:57:10.538Z,21.68
2018-07-22T21:00:08.534Z,21.68
2018-07-22T21:03:06.347Z,21.64
2018-07-22T21:06:04.169Z,21.65
2018-07-22T21:09:02.143Z,21.64
2018-07-22T21:13:16.542Z,21.60
2018-07-22T21:16:14.595Z,21.33
2018-07-22T21:19:12.427Z,21.35
2018-07-22T21:22:10.155Z,21.37
2018-07-22T21:25:07.854Z,21.28
2018-07-22T21:28:05.813Z,21.20
2018-07-22T21:31:03.906Z,21.12
2018-07-22T21:34:01.938Z,20.79
2018-07-22T21:36:59.780Z,20.69
2018-07-22T21:39:58.013Z,20.69
2018-07-22T21:42:56.071Z,20.73
2018-07-22T21:45:54.358Z,20.52
2018-07-22T21:48:52.421Z,20.59
2018-07-22T21:51:50.301Z,20.55
2018-07-22T21:54:48.277Z,20.52
2018-07-22T21:57:46.148Z,20.49
2018-07-22T22:00:52.096Z,20.46
2018-07-22T22:03:50.105Z,20.45
2018-07-22T22:06:47.127Z,20.29
2018-07-22T22:09:45.125Z,20.13
2018-07-22T22:12:42.972Z,19.91
2018-07-22T22:15:40.834Z,19.83
2018-07-22T22:18:38.828Z,19.84
2018-07-22T22:21:36.786Z,19.85
2018-07-22T22:24:34.781Z,19.83
2018-07-22T22:27:32.688Z,19.90
2018-07-22T22:30:30.502Z,19.89
2018-07-22T22:33:28.438Z,19.79
2018-07-22T22:36:26.635Z,19.55
2018-07-22T22:39:24.698Z,19.31
2018-07-22T22:42:22.535Z,19.16
2018-07-22T22:45:20.510Z,19.13
2018-07-22T22:48:18.444Z,19.20
2018-07-22T22:51:16.642Z,19.14
2018-07-22T22:54:14.414Z,19.14
2018-07-22T22:57:12.203Z,19.18
2018-07-22T23:00:10.232Z,19.02
2018-07-22T23:03:08.330Z,18.79
2018-07-22T23:06:06.269Z,18.76
2018-07-22T23:09:04.332Z,18.77
2018-07-22T23:12:02.234Z,18.73
2018-07-22T23:15:00.453Z,18.78
2018-07-22T23:17:58.494Z,18.70
2018-07-22T23:20:56.465Z,18.46
2018-07-22T23:23:54.542Z,18.27
2018-07-22T23:26:52.739Z,18.28
2018-07-22T23:29:50.684Z,18.28
2018-07-22T23:32:48.607Z,18.37
2018-07-22T23:35:45.929Z,18.28
2018-07-22T23:38:44.030Z,18.27
2018-07-22T23:41:41.248Z,18.10
2018-07-22T23:44:39.331Z,18.00
2018-07-22T23:47:37.114Z,17.93
2018-07-22T23:50:35.081Z,18.00
2018-07-22T23:53:32.178Z,18.05
2018-07-22T23:56:30.183Z,18.00
2018-07-22T23:59:27.438Z,18.07
